createdAt,value
2019-03-31T00:00:41.884Z,4.40
2019-03-31T00:03:11.440Z,4.50
2019-03-31T00:05:42.505Z,4.77
2019-03-31T00:08:31.946Z,5.17
2019-03-31T00:11:01.383Z,5.10
2019-03-31T00:13:30.882Z,5.23
2019-03-31T00:16:00.392Z,5.07
2019-03-31T00:18:30.245Z,5.20
2019-03-31T00:20:59.722Z,4.80
2019-03-31T00:23:29.412Z,5.00
2019-03-31T00:26:18.155Z,5.03
2019-03-31T00:28:49.167Z,5.97
2019-03-31T00:31:22.279Z,5.40
2019-03-31T00:33:51.375Z,5.30
2019-03-31T00:36:20.888Z,5.37
2019-03-31T00:38:50.361Z,4.80
2019-03-31T00:41:19.818Z,4.67
2019-03-31T00:43:49.343Z,4.80
2019-03-31T00:46:18.788Z,5.53
2019-03-31T00:48:48.264Z,5.40
2019-03-31T00:51:17.751Z,5.80
2019-03-31T00:53:47.207Z,5.10
2019-03-31T00:56:16.712Z,5.57
2019-03-31T00:58:46.245Z,5.37
2019-03-31T01:04:04.293Z,4.83
2019-03-31T01:06:34.252Z,4.60
2019-03-31T01:09:08.773Z,5.10
2019-03-31T01:11:57.449Z,5.60
2019-03-31T01:14:28.309Z,5.20
2019-03-31T01:16:58.800Z,5.37
2019-03-31T01:19:28.878Z,5.73
2019-03-31T01:21:58.564Z,5.67
2019-03-31T01:24:28.400Z,6.17
2019-03-31T01:26:58.131Z,5.10
2019-03-31T01:29:27.820Z,5.57
2019-03-31T01:32:16.656Z,5.27
2019-03-31T01:34:46.469Z,5.67
2019-03-31T01:37:16.364Z,5.70
2019-03-31T01:39:46.461Z,5.40
2019-03-31T01:42:35.349Z,5.37
2019-03-31T01:45:07.462Z,5.00
2019-03-31T01:47:36.991Z,5.30
2019-03-31T01:50:14.383Z,5.03
2019-03-31T01:52:43.731Z,5.00
2019-03-31T01:55:13.522Z,4.97
2019-03-31T01:57:43.932Z,5.27
2019-03-31T02:00:15.825Z,4.73
2019-03-31T02:02:45.452Z,4.90
2019-03-31T02:05:15.375Z,5.30
2019-03-31T02:07:44.848Z,5.30
2019-03-31T02:10:14.743Z,4.73
2019-03-31T02:12:45.843Z,4.80
2019-03-31T02:15:15.500Z,5.13
2019-03-31T02:17:47.737Z,5.50
2019-03-31T02:20:17.598Z,5.57
2019-03-31T02:22:50.752Z,4.87
2019-03-31T02:25:20.226Z,5.63
2019-03-31T02:27:49.764Z,5.47
2019-03-31T02:30:22.191Z,5.30
2019-03-31T02:32:51.676Z,5.80
2019-03-31T02:35:21.316Z,5.27
2019-03-31T02:38:10.106Z,5.20
2019-03-31T02:40:39.597Z,5.60
2019-03-31T02:43:10.703Z,5.70
2019-03-31T02:45:41.669Z,6.53
2019-03-31T02:48:11.199Z,6.10
2019-03-31T02:50:45.228Z,5.83
2019-03-31T02:53:16.310Z,5.80
2019-03-31T02:55:46.584Z,5.83
2019-03-31T02:58:17.978Z,5.37
2019-03-31T03:00:48.247Z,5.63
2019-03-31T03:03:19.350Z,5.70
2019-03-31T03:05:49.909Z,5.20
2019-03-31T03:08:20.329Z,5.90
2019-03-31T03:10:51.844Z,6.07
2019-03-31T03:13:25.665Z,6.03
2019-03-31T03:18:34.121Z,5.80
2019-03-31T03:21:03.581Z,5.30
2019-03-31T03:23:33.043Z,5.50
2019-03-31T03:26:02.533Z,5.70
2019-03-31T03:28:32.174Z,6.00
2019-03-31T03:31:01.713Z,5.40
2019-03-31T03:33:31.564Z,5.13
2019-03-31T03:36:01.041Z,5.23
2019-03-31T03:38:30.484Z,5.57
2019-03-31T03:41:00.019Z,6.00
2019-03-31T03:43:29.518Z,6.07
2019-03-31T03:45:59.055Z,5.70
2019-03-31T03:48:28.529Z,5.77
2019-03-31T03:50:58.007Z,5.87
2019-03-31T03:53:27.718Z,5.50
2019-03-31T03:55:57.251Z,5.83
2019-03-31T03:58:26.732Z,5.93
2019-03-31T04:00:56.205Z,5.90
2019-03-31T04:03:30.701Z,5.77
2019-03-31T04:05:56.917Z,6.00
2019-03-31T04:08:26.506Z,6.27
2019-03-31T04:13:34.653Z,5.97
2019-03-31T04:16:04.195Z,5.40
2019-03-31T04:18:33.684Z,5.73
2019-03-31T04:21:22.608Z,5.30
2019-03-31T04:23:52.106Z,5.27
2019-03-31T04:26:21.564Z,5.40
2019-03-31T04:28:51.347Z,5.30
2019-03-31T04:31:20.800Z,5.43
2019-03-31T04:33:52.871Z,6.27
2019-03-31T04:36:23.155Z,5.37
2019-03-31T04:38:52.775Z,6.20
2019-03-31T04:41:22.221Z,5.63
2019-03-31T04:43:51.819Z,5.70
2019-03-31T04:46:21.320Z,5.90
2019-03-31T04:48:50.794Z,6.13
2019-03-31T04:51:20.269Z,5.53
2019-03-31T04:53:49.819Z,5.43
2019-03-31T04:56:19.263Z,5.60
2019-03-31T04:58:48.785Z,5.53
2019-03-31T05:01:18.267Z,5.60
2019-03-31T05:03:47.783Z,5.93
2019-03-31T05:06:17.380Z,5.97
2019-03-31T05:08:46.839Z,6.30
2019-03-31T05:11:16.332Z,5.83
2019-03-31T05:13:46.068Z,5.83
2019-03-31T05:16:15.724Z,5.70
2019-03-31T05:18:45.180Z,5.67
2019-03-31T05:21:14.934Z,5.37
2019-03-31T05:23:44.396Z,5.63
2019-03-31T05:26:13.882Z,5.50
2019-03-31T05:28:44.263Z,5.50
2019-03-31T05:31:13.935Z,5.47
2019-03-31T05:33:44.911Z,5.77
2019-03-31T05:36:14.498Z,5.50
2019-03-31T05:38:43.972Z,5.70
2019-03-31T05:41:13.499Z,5.50
2019-03-31T05:43:43.030Z,5.60
2019-03-31T05:46:12.521Z,5.80
2019-03-31T05:48:41.989Z,6.23
2019-03-31T05:51:11.756Z,6.03
2019-03-31T05:53:41.219Z,5.50
2019-03-31T05:56:10.676Z,5.23
2019-03-31T05:58:40.165Z,6.30
2019-03-31T06:01:09.638Z,5.80
2019-03-31T06:03:39.117Z,6.00
2019-03-31T06:06:08.622Z,6.40
2019-03-31T06:08:38.084Z,5.90
2019-03-31T06:11:07.566Z,5.80
2019-03-31T06:13:37.094Z,5.27
2019-03-31T06:16:06.642Z,5.90
2019-03-31T06:18:39.163Z,6.10
2019-03-31T06:21:08.685Z,5.27
2019-03-31T06:23:38.136Z,4.97
2019-03-31T06:26:07.593Z,5.53
2019-03-31T06:28:37.101Z,5.27
2019-03-31T06:31:06.561Z,5.37
2019-03-31T06:33:36.018Z,4.90
2019-03-31T06:36:05.529Z,4.73
2019-03-31T06:38:35.025Z,4.70
2019-03-31T06:41:04.690Z,4.47
2019-03-31T06:43:34.227Z,4.70
2019-03-31T06:46:04.045Z,4.30
2019-03-31T06:48:33.516Z,4.05
2019-03-31T06:51:03.223Z,4.40
2019-03-31T06:53:32.717Z,3.62
2019-03-31T06:56:02.198Z,4.20
2019-03-31T06:58:35.092Z,4.15
2019-03-31T07:01:04.609Z,4.22
2019-03-31T07:03:34.097Z,3.85
2019-03-31T07:06:03.575Z,3.98
2019-03-31T07:08:33.116Z,4.33
2019-03-31T07:11:02.608Z,4.25
2019-03-31T07:13:32.111Z,3.85
2019-03-31T07:16:01.633Z,5.05
2019-03-31T07:18:43.471Z,5.20
2019-03-31T07:21:12.962Z,5.45
2019-03-31T07:23:42.427Z,5.53
2019-03-31T07:26:13.448Z,5.08
2019-03-31T07:28:42.942Z,5.33
2019-03-31T07:31:12.423Z,4.47
2019-03-31T07:33:41.932Z,4.53
2019-03-31T07:36:11.424Z,4.20
2019-03-31T07:38:40.929Z,4.10
2019-03-31T07:41:29.777Z,4.20
2019-03-31T07:43:59.263Z,4.20
2019-03-31T07:46:28.779Z,4.47
2019-03-31T07:49:17.612Z,4.35
2019-03-31T07:51:47.081Z,4.53
2019-03-31T07:54:19.360Z,4.78
2019-03-31T07:56:48.909Z,4.45
2019-03-31T07:59:26.372Z,4.53
2019-03-31T08:01:55.845Z,4.03
2019-03-31T08:04:25.305Z,4.58
2019-03-31T08:06:55.042Z,4.30
2019-03-31T08:09:24.567Z,4.60
2019-03-31T08:11:54.050Z,4.67
2019-03-31T08:14:23.539Z,4.42
2019-03-31T08:16:53.088Z,4.37
2019-03-31T08:19:22.651Z,4.30
2019-03-31T08:21:52.152Z,4.53
2019-03-31T08:24:21.658Z,5.10
2019-03-31T08:27:11.458Z,5.25
2019-03-31T08:29:42.501Z,5.42
2019-03-31T08:32:12.842Z,5.00
2019-03-31T08:34:42.547Z,5.28
2019-03-31T08:37:19.196Z,5.25
2019-03-31T08:39:48.652Z,5.70
2019-03-31T08:42:18.152Z,6.65
2019-03-31T08:44:47.647Z,6.12
2019-03-31T08:47:17.121Z,5.70
2019-03-31T08:49:46.620Z,5.85
2019-03-31T08:52:22.147Z,5.90
2019-03-31T08:54:51.657Z,5.80
2019-03-31T08:57:21.127Z,6.62
2019-03-31T08:59:50.770Z,6.42
2019-03-31T09:02:22.109Z,6.17
2019-03-31T09:04:51.652Z,5.90
2019-03-31T09:07:21.125Z,6.22
2019-03-31T09:09:50.635Z,6.25
2019-03-31T09:12:20.100Z,6.70
2019-03-31T09:14:49.951Z,6.65
2019-03-31T09:17:19.468Z,6.72
2019-03-31T09:19:48.981Z,7.67
2019-03-31T09:22:18.492Z,7.90
2019-03-31T09:24:47.963Z,7.85
2019-03-31T09:27:36.790Z,7.40
2019-03-31T09:30:10.690Z,7.72
2019-03-31T09:32:40.206Z,7.15
2019-03-31T09:35:10.957Z,6.85
2019-03-31T09:37:40.596Z,7.10
2019-03-31T09:40:12.365Z,6.65
2019-03-31T09:42:41.874Z,6.00
2019-03-31T09:45:12.176Z,5.33
2019-03-31T09:47:41.805Z,5.40
2019-03-31T09:50:17.176Z,5.75
2019-03-31T09:52:45.529Z,5.35
2019-03-31T09:55:15.506Z,4.75
2019-03-31T09:57:45.077Z,4.70
2019-03-31T10:00:36.834Z,4.20
2019-03-31T10:03:06.380Z,4.40
2019-03-31T10:05:35.879Z,4.20
2019-03-31T10:08:05.417Z,5.25
2019-03-31T10:10:35.669Z,5.72
2019-03-31T10:13:05.241Z,4.80
2019-03-31T10:15:34.738Z,4.20
2019-03-31T10:18:05.912Z,5.08
2019-03-31T10:20:37.278Z,5.90
2019-03-31T10:23:06.794Z,4.60
2019-03-31T10:25:36.611Z,4.67
2019-03-31T10:28:25.398Z,5.37
2019-03-31T10:30:54.918Z,5.25
2019-03-31T10:33:24.378Z,4.17
2019-03-31T10:35:53.898Z,4.33
2019-03-31T10:38:23.388Z,4.47
2019-03-31T10:40:52.897Z,4.15
2019-03-31T10:43:22.363Z,4.42
2019-03-31T10:45:52.314Z,4.83
2019-03-31T10:48:21.782Z,4.45
2019-03-31T10:50:51.326Z,3.98
2019-03-31T10:53:21.406Z,4.55
2019-03-31T10:55:50.884Z,3.45
2019-03-31T10:58:20.340Z,4.10
2019-03-31T11:00:49.841Z,3.52
2019-03-31T11:03:19.309Z,3.60
2019-03-31T11:05:48.788Z,3.47
2019-03-31T11:08:18.288Z,4.10
2019-03-31T11:10:47.788Z,3.80
2019-03-31T11:13:17.279Z,4.08
2019-03-31T11:15:46.885Z,4.30
2019-03-31T11:18:16.374Z,3.55
2019-03-31T11:20:46.295Z,3.83
2019-03-31T11:23:17.397Z,3.80
2019-03-31T11:25:47.107Z,3.72
2019-03-31T11:28:36.224Z,3.52
2019-03-31T11:31:05.712Z,3.90
2019-03-31T11:33:35.180Z,4.03
2019-03-31T11:36:04.753Z,4.03
2019-03-31T11:38:34.246Z,4.42
2019-03-31T11:41:03.709Z,4.40
2019-03-31T11:43:33.236Z,4.37
2019-03-31T11:46:02.692Z,4.37
2019-03-31T11:48:32.159Z,4.12
2019-03-31T11:51:01.678Z,3.98
2019-03-31T11:53:31.131Z,4.10
2019-03-31T11:56:03.983Z,4.22
2019-03-31T11:58:33.483Z,4.33
2019-03-31T12:01:03.337Z,4.15
2019-03-31T12:03:32.800Z,4.03
2019-03-31T12:06:02.382Z,4.30
2019-03-31T12:08:35.534Z,4.12
2019-03-31T12:11:05.348Z,4.30
2019-03-31T12:13:37.597Z,4.30
2019-03-31T12:16:07.090Z,4.67
2019-03-31T12:18:36.556Z,4.72
2019-03-31T12:21:06.206Z,4.62
2019-03-31T12:23:35.666Z,4.53
2019-03-31T12:26:07.959Z,4.58
2019-03-31T12:28:37.446Z,4.60
2019-03-31T12:31:09.909Z,4.42
2019-03-31T12:33:39.382Z,4.72
2019-03-31T12:36:10.426Z,4.30
2019-03-31T12:38:41.409Z,4.75
2019-03-31T12:41:10.924Z,4.90
2019-03-31T12:43:40.427Z,5.00
2019-03-31T12:46:12.653Z,4.65
2019-03-31T12:48:42.183Z,4.65
2019-03-31T12:51:11.714Z,4.45
2019-03-31T12:53:41.203Z,4.90
2019-03-31T12:56:10.695Z,5.00
2019-03-31T12:58:45.860Z,5.00
2019-03-31T13:01:21.087Z,5.17
2019-03-31T13:03:50.578Z,5.42
2019-03-31T13:06:20.507Z,5.45
2019-03-31T13:08:49.978Z,4.75
2019-03-31T13:11:19.518Z,5.45
2019-03-31T13:13:49.065Z,5.42
2019-03-31T13:16:18.521Z,4.83
2019-03-31T13:18:47.999Z,5.55
2019-03-31T13:21:17.674Z,5.53
2019-03-31T13:23:47.175Z,4.67
2019-03-31T13:26:18.184Z,4.45
2019-03-31T13:28:47.762Z,5.65
2019-03-31T13:31:17.267Z,5.00
2019-03-31T13:33:46.772Z,4.70
2019-03-31T13:36:23.685Z,4.87
2019-03-31T13:38:53.176Z,4.62
2019-03-31T13:41:22.677Z,5.03
2019-03-31T13:43:52.195Z,5.35
2019-03-31T13:46:21.686Z,5.33
2019-03-31T13:48:51.102Z,4.80
2019-03-31T13:51:20.695Z,4.90
2019-03-31T13:53:50.201Z,4.58
2019-03-31T13:56:20.123Z,5.50
2019-03-31T13:58:52.621Z,4.50
2019-03-31T14:01:21.121Z,4.72
2019-03-31T14:03:50.746Z,3.98
2019-03-31T14:06:20.487Z,4.40
2019-03-31T14:08:49.996Z,4.20
2019-03-31T14:11:21.603Z,4.35
2019-03-31T14:13:50.795Z,4.42
2019-03-31T14:16:20.261Z,4.08
2019-03-31T14:18:49.828Z,3.90
2019-03-31T14:21:20.639Z,3.80
2019-03-31T14:23:50.134Z,4.45
2019-03-31T14:26:19.620Z,4.37
2019-03-31T14:28:49.188Z,5.10
2019-03-31T14:31:18.717Z,5.30
2019-03-31T14:33:48.188Z,4.40
2019-03-31T14:36:19.189Z,5.10
2019-03-31T14:38:48.837Z,4.97
2019-03-31T14:41:18.306Z,4.75
2019-03-31T14:43:47.808Z,4.53
2019-03-31T14:46:19.595Z,4.40
2019-03-31T14:48:48.486Z,4.45
2019-03-31T14:51:18.038Z,4.25
2019-03-31T14:53:47.586Z,4.15
2019-03-31T14:56:17.071Z,4.15
2019-03-31T14:58:46.600Z,4.28
2019-03-31T15:01:16.262Z,3.95
2019-03-31T15:03:45.733Z,4.30
2019-03-31T15:06:15.313Z,4.90
2019-03-31T15:08:54.167Z,4.60
2019-03-31T15:11:22.279Z,4.37
2019-03-31T15:13:54.845Z,4.40
2019-03-31T15:16:24.354Z,4.45
2019-03-31T15:18:53.830Z,4.75
2019-03-31T15:21:23.361Z,3.72
2019-03-31T15:23:52.874Z,3.75
2019-03-31T15:26:23.862Z,4.67
2019-03-31T15:28:53.336Z,4.62
2019-03-31T15:31:22.985Z,3.92
2019-03-31T15:33:52.461Z,4.25
2019-03-31T15:36:21.985Z,4.80
2019-03-31T15:38:51.558Z,4.10
2019-03-31T15:41:21.607Z,4.10
2019-03-31T15:44:10.542Z,4.25
2019-03-31T15:46:39.997Z,5.08
2019-03-31T15:49:09.498Z,4.30
2019-03-31T15:51:38.999Z,5.22
2019-03-31T15:54:08.458Z,4.75
2019-03-31T15:56:38.032Z,4.15
2019-03-31T15:59:07.523Z,4.47
2019-03-31T16:01:37.021Z,3.95
2019-03-31T16:04:06.509Z,4.00
2019-03-31T16:06:36.445Z,3.80
2019-03-31T16:09:22.397Z,3.70
2019-03-31T16:11:52.905Z,3.90
2019-03-31T16:14:10.577Z,4.60
2019-03-31T16:16:40.046Z,4.80
2019-03-31T16:19:09.516Z,4.80
2019-03-31T16:21:39.104Z,4.85
2019-03-31T16:24:08.607Z,4.87
2019-03-31T16:26:38.094Z,4.95
2019-03-31T16:29:07.660Z,4.45
2019-03-31T16:31:37.150Z,4.20
2019-03-31T16:34:06.622Z,4.45
2019-03-31T16:36:36.236Z,4.53
2019-03-31T16:39:07.403Z,5.58
2019-03-31T16:41:36.861Z,7.80
2019-03-31T16:44:06.379Z,7.10
2019-03-31T16:46:35.858Z,8.65
2019-03-31T16:49:11.383Z,9.63
2019-03-31T16:51:40.929Z,10.10
2019-03-31T16:54:10.662Z,9.75
2019-03-31T16:56:40.153Z,10.00
2019-03-31T16:59:11.203Z,9.50
2019-03-31T17:01:40.692Z,9.93
2019-03-31T17:04:10.152Z,10.80
2019-03-31T17:06:39.646Z,10.60
2019-03-31T17:09:16.824Z,11.15
2019-03-31T17:11:46.348Z,11.00
2019-03-31T17:14:16.185Z,10.82
2019-03-31T17:16:45.684Z,12.25
2019-03-31T17:19:15.454Z,14.83
2019-03-31T17:21:44.979Z,14.43
2019-03-31T17:24:14.476Z,17.17
2019-03-31T17:27:03.328Z,18.65
2019-03-31T17:29:32.833Z,18.30
2019-03-31T17:32:02.291Z,20.20
2019-03-31T17:34:32.041Z,19.98
2019-03-31T17:37:01.553Z,20.77
2019-03-31T17:39:31.035Z,21.68
2019-03-31T17:42:00.563Z,22.58
2019-03-31T17:44:30.069Z,20.97
2019-03-31T17:46:59.527Z,21.10
2019-03-31T17:49:29.019Z,22.20
2019-03-31T17:52:01.058Z,20.45
2019-03-31T17:54:29.708Z,21.50
2019-03-31T17:56:59.492Z,21.17
2019-03-31T17:59:31.643Z,21.33
2019-03-31T18:02:01.132Z,20.92
2019-03-31T18:04:32.130Z,20.60
2019-03-31T18:07:20.952Z,21.97
2019-03-31T18:09:50.433Z,20.88
2019-03-31T18:12:19.938Z,21.65
2019-03-31T18:14:49.439Z,21.62
2019-03-31T18:17:18.965Z,21.15
2019-03-31T18:19:48.471Z,21.45
2019-03-31T18:22:18.020Z,21.50
2019-03-31T18:24:47.524Z,21.63
2019-03-31T18:27:17.025Z,23.38
2019-03-31T18:29:46.504Z,22.65
2019-03-31T18:32:16.020Z,22.05
2019-03-31T18:34:45.520Z,22.82
2019-03-31T18:37:15.017Z,23.30
2019-03-31T18:39:44.765Z,22.73
2019-03-31T18:42:14.239Z,21.00
2019-03-31T18:44:43.751Z,23.95
2019-03-31T18:47:13.296Z,26.27
2019-03-31T18:49:42.803Z,25.02
2019-03-31T18:52:12.333Z,24.80
2019-03-31T18:54:43.504Z,26.33
2019-03-31T18:57:14.610Z,26.77
2019-03-31T18:59:46.944Z,28.25
2019-03-31T19:02:37.664Z,26.57
2019-03-31T19:05:09.905Z,28.73
2019-03-31T19:07:41.030Z,29.92
2019-03-31T19:10:24.197Z,28.62
2019-03-31T19:12:45.410Z,29.93
2019-03-31T19:15:35.869Z,28.67
2019-03-31T19:18:07.104Z,29.85
2019-03-31T19:20:38.430Z,28.30
2019-03-31T19:23:10.074Z,28.30
2019-03-31T19:25:41.181Z,30.45
2019-03-31T19:28:12.303Z,29.42
2019-03-31T19:30:43.690Z,30.48
2019-03-31T19:33:14.773Z,29.97
2019-03-31T19:35:47.675Z,28.83
2019-03-31T19:38:18.779Z,28.67
2019-03-31T19:41:03.419Z,29.35
2019-03-31T19:43:22.713Z,29.43
2019-03-31T19:45:53.849Z,27.85
2019-03-31T19:48:24.957Z,27.82
2019-03-31T19:50:56.070Z,27.75
2019-03-31T19:53:46.528Z,28.27
2019-03-31T19:56:17.675Z,27.47
2019-03-31T19:58:48.800Z,28.77
2019-03-31T20:01:19.944Z,27.90
2019-03-31T20:04:10.357Z,26.70
2019-03-31T20:06:41.486Z,25.32
2019-03-31T20:09:12.685Z,26.60
2019-03-31T20:11:43.765Z,27.03
2019-03-31T20:14:14.912Z,26.63
2019-03-31T20:16:46.020Z,24.67
2019-03-31T20:19:17.164Z,23.03
2019-03-31T20:21:48.273Z,24.40
2019-03-31T20:24:19.366Z,22.07
2019-03-31T20:26:50.494Z,22.53
2019-03-31T20:29:21.606Z,22.90
2019-03-31T20:31:52.712Z,22.73
2019-03-31T20:34:23.788Z,22.33
2019-03-31T20:36:55.322Z,22.00
2019-03-31T20:39:56.659Z,21.12
2019-03-31T20:42:38.159Z,22.07
2019-03-31T20:45:27.030Z,21.87
2019-03-31T20:47:56.550Z,21.80
2019-03-31T20:50:26.222Z,19.13
2019-03-31T20:52:55.703Z,19.10
2019-03-31T20:55:25.234Z,19.23
2019-03-31T20:57:54.700Z,18.43
2019-03-31T21:00:24.276Z,19.70
2019-03-31T21:02:53.963Z,17.60
2019-03-31T21:05:23.458Z,17.90
2019-03-31T21:07:52.957Z,18.13
2019-03-31T21:10:22.571Z,17.60
2019-03-31T21:13:11.355Z,18.37
2019-03-31T21:15:40.839Z,18.20
2019-03-31T21:18:10.312Z,18.23
2019-03-31T21:20:39.836Z,17.77
2019-03-31T21:23:09.376Z,17.37
2019-03-31T21:25:38.949Z,17.13
2019-03-31T21:28:14.270Z,17.03
2019-03-31T21:30:43.796Z,17.53
2019-03-31T21:33:22.020Z,16.03
2019-03-31T21:35:51.530Z,16.50
2019-03-31T21:38:21.010Z,16.23
2019-03-31T21:40:50.519Z,16.70
2019-03-31T21:43:20.032Z,16.50
2019-03-31T21:45:49.532Z,15.93
2019-03-31T21:48:19.035Z,16.27
2019-03-31T21:50:48.543Z,16.27
2019-03-31T21:53:18.027Z,16.57
2019-03-31T21:55:47.659Z,16.43
2019-03-31T21:58:17.155Z,17.13
2019-03-31T22:00:48.297Z,16.07
2019-03-31T22:03:17.759Z,16.07
2019-03-31T22:05:47.374Z,16.07
2019-03-31T22:08:17.090Z,16.60
2019-03-31T22:10:46.658Z,15.67
2019-03-31T22:13:16.151Z,16.60
2019-03-31T22:15:45.811Z,15.93
2019-03-31T22:18:15.277Z,17.47
2019-03-31T22:20:47.232Z,15.23
2019-03-31T22:23:16.050Z,16.43
2019-03-31T22:25:45.809Z,16.40
2019-03-31T22:28:15.296Z,16.83
2019-03-31T22:30:44.758Z,15.73
2019-03-31T22:33:14.245Z,16.70
2019-03-31T22:35:45.382Z,15.87
2019-03-31T22:38:14.877Z,16.40
2019-03-31T22:40:44.352Z,17.00
2019-03-31T22:43:14.006Z,15.90
2019-03-31T22:45:43.483Z,15.73
2019-03-31T22:48:12.902Z,16.73
2019-03-31T22:50:42.391Z,17.13
2019-03-31T22:53:11.875Z,16.27
2019-03-31T22:55:41.344Z,16.73
2019-03-31T22:58:10.887Z,16.93
2019-03-31T23:00:40.374Z,16.43
2019-03-31T23:03:09.825Z,16.33
2019-03-31T23:05:39.330Z,16.50
2019-03-31T23:08:14.848Z,15.83
2019-03-31T23:10:44.351Z,16.93
2019-03-31T23:13:15.054Z,17.13
2019-03-31T23:15:44.519Z,17.10
2019-03-31T23:18:19.988Z,17.07
2019-03-31T23:20:49.493Z,16.73
2019-03-31T23:23:24.909Z,16.63
2019-03-31T23:25:54.544Z,16.90
2019-03-31T23:28:24.020Z,16.27
2019-03-31T23:30:53.496Z,16.50
2019-03-31T23:33:23.033Z,16.43
2019-03-31T23:35:52.481Z,18.00
2019-03-31T23:38:21.969Z,17.17
2019-03-31T23:40:51.475Z,16.83
2019-03-31T23:43:20.946Z,17.53
2019-03-31T23:45:50.416Z,17.13
2019-03-31T23:48:21.818Z,16.43
2019-03-31T23:51:10.579Z,18.17
2019-03-31T23:53:40.101Z,17.40
2019-03-31T23:56:11.099Z,17.33
2019-03-31T23:58:40.590Z,17.37
